Time;durP1;ratioP1;P1;durP2;ratioP2;P2;SDS_P1;SDS_P2;PMS_P1;PMS_P2;Temp;Humidity;BMP_temperature;BMP_pressure;BME280_temperature;BME280_humidity;BME280_pressure;Samples;Min_cycle;Max_cycle;Signal;HPM_P1;HPM_P2
2020/12/24 00:00:31;;;;;;;0.77;0.70;;;12.20;99.90;;;;;;5068934;28;20440;-59
2020/12/24 00:02:56;;;;;;;0.63;0.60;;;11.90;99.90;;;;;;5068778;28;20193;-60
2020/12/24 00:05:22;;;;;;;1.13;0.70;;;12.10;99.90;;;;;;5068996;28;20460;-60
2020/12/24 00:07:48;;;;;;;2.38;0.80;;;12.00;99.90;;;;;;5070102;28;20224;-59
2020/12/24 00:10:13;;;;;;;0.87;0.60;;;12.10;99.90;;;;;;5068811;28;20641;-60
2020/12/24 00:12:39;;;;;;;0.90;0.60;;;12.10;99.90;;;;;;5068627;28;20189;-60
2020/12/24 00:15:06;;;;;;;0.60;0.60;;;11.90;99.90;;;;;;5068433;28;20180;-60
2020/12/24 00:17:32;;;;;;;0.90;0.73;;;12.00;99.90;;;;;;5062244;28;20580;-60
2020/12/24 00:19:58;;;;;;;0.80;0.53;;;12.00;99.90;;;;;;5058844;28;20190;-60
2020/12/24 00:22:24;;;;;;;0.80;0.60;;;12.00;99.90;;;;;;5068520;28;20191;-59
2020/12/24 00:24:49;;;;;;;0.60;0.50;;;12.10;99.90;;;;;;5068074;28;20217;-59
2020/12/24 00:27:15;;;;;;;0.73;0.57;;;11.90;99.90;;;;;;5066070;28;20209;-58
2020/12/24 00:29:41;;;;;;;0.70;0.60;;;12.00;99.90;;;;;;5067494;28;20192;-59
2020/12/24 00:32:07;;;;;;;0.60;0.50;;;11.90;99.90;;;;;;5070004;28;20187;-59
2020/12/24 00:34:33;;;;;;;0.93;0.63;;;12.00;99.90;;;;;;5068203;28;20193;-60
2020/12/24 00:36:58;;;;;;;0.60;0.50;;;12.10;99.90;;;;;;5068251;28;20454;-60
2020/12/24 00:39:24;;;;;;;2.80;0.60;;;12.20;99.90;;;;;;5067949;28;20253;-60
2020/12/24 00:41:51;;;;;;;0.80;0.60;;;11.80;99.90;;;;;;5067910;28;20187;-60
2020/12/24 00:44:18;;;;;;;0.75;0.75;;;12.00;99.90;;;;;;5067376;28;20444;-60
2020/12/24 00:46:43;;;;;;;0.70;0.52;;;12.20;99.90;;;;;;5068253;28;20211;-60
2020/12/24 00:49:09;;;;;;;2.50;0.63;;;12.20;99.90;;;;;;5067796;28;20204;-60
2020/12/24 00:51:34;;;;;;;0.70;0.60;;;12.10;99.90;;;;;;5068378;28;20265;-60
2020/12/24 00:54:00;;;;;;;1.27;0.70;;;12.30;99.90;;;;;;5068144;28;20192;-61
2020/12/24 00:56:26;;;;;;;1.23;0.60;;;12.10;99.90;;;;;;5067974;28;20264;-61
2020/12/24 00:58:51;;;;;;;1.03;0.50;;;12.10;99.90;;;;;;5067756;28;20261;-61
2020/12/24 01:01:17;;;;;;;0.70;0.60;;;12.20;99.90;;;;;;5069402;28;20553;-60
2020/12/24 01:03:42;;;;;;;1.93;0.60;;;12.10;99.90;;;;;;5068059;28;20225;-60
2020/12/24 01:06:08;;;;;;;0.80;0.60;;;12.20;99.90;;;;;;5068034;28;20302;-60
2020/12/24 01:08:33;;;;;;;1.37;0.70;;;12.00;99.90;;;;;;5067660;28;20686;-60
2020/12/24 01:10:59;;;;;;;1.10;0.70;;;12.20;99.90;;;;;;5067780;28;20286;-60
2020/12/24 01:13:25;;;;;;;2.13;0.90;;;12.20;99.90;;;;;;5069228;28;20227;-59
2020/12/24 01:15:50;;;;;;;1.40;0.60;;;12.00;99.90;;;;;;5067669;28;20408;-60
2020/12/24 01:18:16;;;;;;;1.67;0.73;;;12.10;99.90;;;;;;5067746;28;20194;-60
2020/12/24 01:20:41;;;;;;;0.80;0.70;;;11.70;99.90;;;;;;5068208;28;20212;-60
2020/12/24 01:23:07;;;;;;;0.80;0.63;;;11.40;99.90;;;;;;5068139;28;20187;-60
2020/12/24 01:25:33;;;;;;;1.00;0.70;;;11.30;99.90;;;;;;5067834;28;20792;-60
2020/12/24 01:27:59;;;;;;;0.80;0.70;;;11.30;99.90;;;;;;5067680;28;20213;-60
2020/12/24 01:30:25;;;;;;;0.80;0.60;;;11.40;99.90;;;;;;5068072;28;20221;-60
2020/12/24 01:32:50;;;;;;;0.90;0.60;;;11.40;99.90;;;;;;5068175;28;20258;-57
2020/12/24 01:35:20;;;;;;;0.80;0.70;;;11.30;99.90;;;;;;5067845;28;20443;-58
2020/12/24 01:37:46;;;;;;;2.55;0.80;;;11.10;99.90;;;;;;5067356;28;20240;-57
2020/12/24 01:40:11;;;;;;;1.80;0.80;;;11.20;99.90;;;;;;5067372;28;20365;-58
2020/12/24 01:42:37;;;;;;;1.17;0.60;;;11.00;99.90;;;;;;5068983;28;20430;-58
2020/12/24 01:45:04;;;;;;;1.53;0.70;;;10.80;99.90;;;;;;5068918;28;20517;-58
2020/12/24 01:47:29;;;;;;;1.15;0.50;;;11.10;99.90;;;;;;5068877;28;20209;-58
2020/12/24 01:49:55;;;;;;;0.70;0.60;;;10.90;99.90;;;;;;5068961;28;20646;-57
2020/12/24 01:52:36;;;;;;;1.37;0.60;;;11.20;99.90;;;;;;5063124;28;20295;-58
2020/12/24 01:55:06;;;;;;;0.65;0.50;;;11.10;99.90;;;;;;5061133;28;20326;-58
2020/12/24 01:57:32;;;;;;;0.73;0.50;;;10.90;99.90;;;;;;5070993;28;20622;-58
2020/12/24 01:59:58;;;;;;;0.65;0.50;;;11.10;99.90;;;;;;5071161;28;20586;-58
2020/12/24 02:02:24;;;;;;;1.43;0.80;;;11.00;99.90;;;;;;5071205;28;20191;-58
2020/12/24 02:04:50;;;;;;;1.10;0.80;;;11.20;99.90;;;;;;5071189;28;20177;-58
2020/12/24 02:07:17;;;;;;;1.00;0.70;;;11.30;99.90;;;;;;5070978;28;20241;-58
2020/12/24 02:09:50;;;;;;;2.10;0.60;;;11.10;99.90;;;;;;5070768;28;20558;-59
2020/12/24 02:12:17;;;;;;;0.60;0.50;;;11.20;99.90;;;;;;5070941;28;20192;-58
2020/12/24 02:14:43;;;;;;;0.70;0.60;;;11.00;99.90;;;;;;5070644;28;20208;-58
2020/12/24 02:17:09;;;;;;;1.20;0.50;;;11.10;99.90;;;;;;5067864;28;20213;-58
2020/12/24 02:19:35;;;;;;;0.98;0.80;;;11.20;99.90;;;;;;5067275;28;20431;-58
2020/12/24 02:22:01;;;;;;;1.10;0.63;;;11.00;99.90;;;;;;5070674;28;20188;-59
2020/12/24 02:24:27;;;;;;;2.35;0.70;;;11.10;99.90;;;;;;5070298;28;20443;-58
2020/12/24 02:26:53;;;;;;;0.80;0.67;;;11.00;99.90;;;;;;5070506;28;20212;-58
2020/12/24 02:29:19;;;;;;;2.00;0.53;;;11.00;99.90;;;;;;5070195;28;20451;-58
2020/12/24 02:31:44;;;;;;;2.80;0.60;;;10.80;99.90;;;;;;5070537;28;20423;-58
2020/12/24 02:34:10;;;;;;;2.03;0.87;;;11.00;99.90;;;;;;5070234;28;20272;-58
2020/12/24 02:36:36;;;;;;;1.00;0.60;;;11.00;99.90;;;;;;5070329;28;20460;-58
2020/12/24 02:39:02;;;;;;;3.20;0.70;;;10.80;99.90;;;;;;5070304;28;20563;-58
2020/12/24 02:41:28;;;;;;;1.00;0.65;;;10.70;99.90;;;;;;5070372;28;20191;-58
2020/12/24 02:43:53;;;;;;;0.97;0.60;;;10.70;99.90;;;;;;5070345;28;20192;-58
2020/12/24 02:46:19;;;;;;;2.57;0.60;;;10.90;99.90;;;;;;5070142;28;20254;-58
2020/12/24 02:48:45;;;;;;;0.80;0.57;;;11.00;99.90;;;;;;5070014;28;20235;-57
2020/12/24 02:51:10;;;;;;;1.07;0.73;;;10.20;99.90;;;;;;5070621;28;20186;-58
2020/12/24 02:53:36;;;;;;;1.00;0.70;;;10.70;99.90;;;;;;5070106;28;20182;-58
2020/12/24 02:56:03;;;;;;;0.60;0.50;;;10.70;99.90;;;;;;5069997;28;20202;-58
2020/12/24 02:58:28;;;;;;;1.30;0.55;;;10.70;99.90;;;;;;5069788;28;20177;-59
2020/12/24 03:00:54;;;;;;;1.27;0.60;;;10.60;99.90;;;;;;5071358;28;20231;-59
2020/12/24 03:03:20;;;;;;;1.00;0.60;;;10.90;99.90;;;;;;5069820;28;20188;-58
2020/12/24 03:05:46;;;;;;;0.70;0.50;;;11.00;99.90;;;;;;5069454;28;20246;-58
2020/12/24 03:08:12;;;;;;;0.60;0.60;;;10.80;99.90;;;;;;5069479;28;20203;-58
2020/12/24 03:10:38;;;;;;;2.20;0.50;;;10.80;99.90;;;;;;5069783;28;20586;-59
2020/12/24 03:13:06;;;;;;;0.80;0.40;;;10.50;99.90;;;;;;5069693;28;20620;-58
2020/12/24 03:15:32;;;;;;;1.00;0.50;;;10.60;99.90;;;;;;5069560;28;20735;-58
2020/12/24 03:17:57;;;;;;;0.90;0.50;;;10.70;99.90;;;;;;5069468;28;20196;-58
2020/12/24 03:20:23;;;;;;;0.70;0.50;;;10.40;99.90;;;;;;5069577;28;20205;-58
2020/12/24 03:22:49;;;;;;;0.63;0.50;;;10.40;99.90;;;;;;5069659;28;20224;-59
2020/12/24 03:25:14;;;;;;;0.70;0.50;;;10.60;99.90;;;;;;5069291;28;20693;-58
2020/12/24 03:27:40;;;;;;;1.10;0.60;;;10.50;99.90;;;;;;5069235;28;20343;-58
2020/12/24 03:30:08;;;;;;;1.00;0.57;;;10.20;99.90;;;;;;5069316;28;20694;-59
2020/12/24 03:32:33;;;;;;;2.10;0.60;;;10.70;99.90;;;;;;5068969;28;20181;-58
2020/12/24 03:34:59;;;;;;;0.60;0.47;;;10.50;99.90;;;;;;5069690;28;20653;-58
2020/12/24 03:37:25;;;;;;;0.63;0.50;;;10.30;99.90;;;;;;5068942;28;20458;-58
2020/12/24 03:39:50;;;;;;;0.73;0.60;;;10.30;99.90;;;;;;5069098;28;20580;-58
2020/12/24 03:42:16;;;;;;;0.70;0.50;;;10.30;99.90;;;;;;5069198;28;20279;-58
2020/12/24 03:44:41;;;;;;;0.60;0.50;;;10.50;99.90;;;;;;5069200;28;20203;-58
2020/12/24 03:47:07;;;;;;;0.63;0.47;;;10.40;99.90;;;;;;5068815;28;20204;-58
2020/12/24 03:49:33;;;;;;;0.80;0.50;;;10.30;99.90;;;;;;5069981;28;20211;-58
2020/12/24 03:51:58;;;;;;;1.33;0.53;;;10.20;99.90;;;;;;5069069;28;20188;-59
2020/12/24 03:54:24;;;;;;;1.23;0.60;;;10.30;99.90;;;;;;5069263;28;20178;-58
2020/12/24 03:56:49;;;;;;;0.70;0.60;;;10.10;99.90;;;;;;5068918;28;20197;-58
2020/12/24 03:59:15;;;;;;;1.03;0.40;;;10.10;99.90;;;;;;5068732;28;20189;-58
2020/12/24 04:01:41;;;;;;;0.77;0.60;;;10.00;99.90;;;;;;5068683;28;20224;-59
2020/12/24 04:04:06;;;;;;;0.60;0.50;;;10.10;99.90;;;;;;5068891;28;20215;-58
2020/12/24 04:06:32;;;;;;;1.03;0.60;;;9.80;99.90;;;;;;5068653;28;20762;-58
2020/12/24 04:08:57;;;;;;;1.17;0.90;;;10.00;99.90;;;;;;5068364;28;20208;-58
2020/12/24 04:11:23;;;;;;;1.00;0.60;;;9.60;99.90;;;;;;5068535;28;20212;-58
2020/12/24 04:13:48;;;;;;;1.30;0.60;;;9.90;99.90;;;;;;5068940;28;20193;-58
2020/12/24 04:16:17;;;;;;;0.70;0.50;;;9.70;99.90;;;;;;5068201;28;20216;-58
2020/12/24 04:18:42;;;;;;;3.00;0.82;;;9.90;99.90;;;;;;5064192;28;20647;-58
2020/12/24 04:21:08;;;;;;;0.90;0.60;;;9.90;99.90;;;;;;5067295;28;20203;-58
2020/12/24 04:23:34;;;;;;;0.80;0.70;;;9.90;99.90;;;;;;5068177;28;20200;-58
2020/12/24 04:26:00;;;;;;;1.40;0.60;;;9.90;99.90;;;;;;5068266;28;20213;-58
2020/12/24 04:28:25;;;;;;;1.20;0.90;;;9.90;99.90;;;;;;5058090;28;20231;-60
2020/12/24 04:30:51;;;;;;;0.80;0.60;;;9.90;99.90;;;;;;5048356;28;20499;-59
2020/12/24 04:33:16;;;;;;;1.00;0.60;;;9.80;99.90;;;;;;5048476;28;20212;-58
2020/12/24 04:35:42;;;;;;;0.73;0.60;;;9.90;99.90;;;;;;5048234;28;20646;-58
2020/12/24 04:38:09;;;;;;;1.50;0.80;;;9.90;99.90;;;;;;5048085;28;20182;-59
2020/12/24 04:40:35;;;;;;;1.05;0.70;;;9.80;99.90;;;;;;5064048;28;20181;-59
2020/12/24 04:43:04;;;;;;;0.90;0.60;;;9.50;99.90;;;;;;5068415;28;20569;-58
2020/12/24 04:45:32;;;;;;;0.70;0.50;;;9.90;99.90;;;;;;5068016;28;20241;-58
2020/12/24 04:47:58;;;;;;;0.70;0.50;;;9.90;99.90;;;;;;5068138;28;20213;-58
2020/12/24 04:50:26;;;;;;;2.03;0.63;;;9.90;99.90;;;;;;5068207;28;20173;-58
2020/12/24 04:52:52;;;;;;;0.90;0.40;;;9.80;99.90;;;;;;5063788;28;20184;-58
2020/12/24 04:55:17;;;;;;;1.33;0.60;;;9.70;99.90;;;;;;5058548;28;20185;-58
2020/12/24 04:57:45;;;;;;;0.50;0.40;;;9.70;99.90;;;;;;5064980;28;20425;-58
2020/12/24 05:00:10;;;;;;;0.70;0.60;;;10.00;99.90;;;;;;5068028;28;20189;-58
2020/12/24 05:02:36;;;;;;;0.60;0.50;;;9.80;99.90;;;;;;5068130;28;20261;-58
2020/12/24 05:05:03;;;;;;;0.60;0.50;;;10.10;99.90;;;;;;5068041;28;20177;-58
2020/12/24 05:07:29;;;;;;;0.95;0.63;;;9.80;99.90;;;;;;5067923;28;20275;-58
2020/12/24 05:09:55;;;;;;;0.90;0.60;;;9.60;99.90;;;;;;5067923;28;20269;-58
2020/12/24 05:12:31;;;;;;;1.93;1.07;;;10.00;99.90;;;;;;5069232;28;20658;-58
2020/12/24 05:14:57;;;;;;;0.60;0.40;;;9.80;99.90;;;;;;5067679;28;20185;-58
2020/12/24 05:17:24;;;;;;;0.80;0.50;;;9.60;99.90;;;;;;5067146;28;20713;-58
2020/12/24 05:20:04;;;;;;;0.80;0.50;;;9.80;99.90;;;;;;5062228;28;20181;-58
2020/12/24 05:22:30;;;;;;;0.80;0.50;;;9.60;99.90;;;;;;5084758;28;20188;-59
2020/12/24 05:25:10;;;;;;;0.70;0.50;;;9.80;99.90;;;;;;5067531;28;20197;-58
2020/12/24 05:27:39;;;;;;;0.70;0.50;;;9.50;99.90;;;;;;5067641;28;20189;-58
2020/12/24 05:30:05;;;;;;;0.57;0.40;;;9.30;99.90;;;;;;5069590;28;20192;-59
2020/12/24 05:32:32;;;;;;;0.88;0.60;;;9.40;99.90;;;;;;5071481;28;20188;-59
2020/12/24 05:35:12;;;;;;;0.93;0.50;;;9.20;99.90;;;;;;5071605;28;20212;-59
2020/12/24 05:37:38;;;;;;;0.60;0.50;;;9.00;99.90;;;;;;5072466;28;20719;-59
2020/12/24 05:40:19;;;;;;;2.53;0.63;;;9.00;99.90;;;;;;5071569;28;20357;-58
2020/12/24 05:42:59;;;;;;;0.88;0.60;;;9.20;99.90;;;;;;5071611;28;20188;-60
2020/12/24 05:45:30;;;;;;;1.10;0.60;;;8.80;99.90;;;;;;5071341;28;20307;-59
2020/12/24 05:48:15;;;;;;;0.60;0.60;;;9.00;99.90;;;;;;5072241;28;20579;-59
2020/12/24 05:50:43;;;;;;;0.73;0.57;;;9.00;99.90;;;;;;5071181;28;20268;-59
2020/12/24 05:53:11;;;;;;;1.67;0.70;;;8.80;99.90;;;;;;5071293;28;20188;-59
2020/12/24 05:55:39;;;;;;;1.17;0.90;;;9.00;99.90;;;;;;5071151;28;20665;-59
2020/12/24 05:58:07;;;;;;;0.90;0.63;;;8.90;99.90;;;;;;5070937;28;20211;-59
2020/12/24 06:00:34;;;;;;;0.75;0.63;;;9.00;99.90;;;;;;5070856;28;20678;-59
2020/12/24 06:03:13;;;;;;;1.10;0.60;;;8.90;99.90;;;;;;5071105;28;20668;-59
2020/12/24 06:05:57;;;;;;;2.08;0.65;;;8.90;99.90;;;;;;5070986;28;20188;-58
2020/12/24 06:08:31;;;;;;;2.17;0.80;;;8.70;99.90;;;;;;5070766;28;20212;-59
2020/12/24 06:11:06;;;;;;;1.67;0.70;;;8.90;99.90;;;;;;5072298;28;20478;-59
2020/12/24 06:13:39;;;;;;;2.97;0.70;;;8.70;99.90;;;;;;5071222;28;20181;-59
2020/12/24 06:16:12;;;;;;;2.00;0.70;;;8.60;99.90;;;;;;5070684;28;20665;-59
2020/12/24 06:18:43;;;;;;;3.53;0.80;;;8.60;99.90;;;;;;5087613;28;20242;-59
2020/12/24 06:21:20;;;;;;;0.90;0.60;;;8.60;99.90;;;;;;5070323;28;20192;-58
2020/12/24 06:23:49;;;;;;;0.75;0.70;;;8.90;99.90;;;;;;5070677;28;20184;-59
2020/12/24 06:26:46;;;;;;;0.70;0.60;;;8.80;99.90;;;;;;5070344;28;20718;-59
2020/12/24 06:29:15;;;;;;;1.70;1.10;;;8.80;99.90;;;;;;5060178;28;20709;-59
2020/12/24 06:31:41;;;;;;;1.02;0.70;;;8.40;99.90;;;;;;5074448;28;20185;-59
2020/12/24 06:34:28;;;;;;;0.80;0.60;;;9.10;99.90;;;;;;5070551;28;20181;-58
2020/12/24 06:36:55;;;;;;;1.83;0.90;;;8.90;99.90;;;;;;5070558;28;20196;-59
2020/12/24 06:39:56;;;;;;;1.38;0.75;;;8.90;99.90;;;;;;5069943;28;20203;-59
2020/12/24 06:42:43;;;;;;;1.20;0.73;;;9.20;99.90;;;;;;4972383;28;20270;-59
2020/12/24 06:45:11;;;;;;;1.88;0.70;;;9.10;99.90;;;;;;5063782;28;20492;-59
2020/12/24 06:47:39;;;;;;;1.17;0.60;;;9.10;99.90;;;;;;5069679;28;20209;-58
2020/12/24 06:50:34;;;;;;;2.45;0.85;;;8.70;99.90;;;;;;5070685;28;20188;-59
2020/12/24 06:53:21;;;;;;;1.00;0.70;;;9.10;99.90;;;;;;5070155;28;20192;-59
2020/12/24 06:56:15;;;;;;;0.90;0.60;;;9.40;99.90;;;;;;5070949;28;20726;-59
2020/12/24 06:59:06;;;;;;;2.80;0.85;;;9.00;99.90;;;;;;5069664;28;20193;-58
2020/12/24 07:01:35;;;;;;;3.30;0.90;;;9.10;99.90;;;;;;5069906;28;20205;-58
2020/12/24 07:04:03;;;;;;;2.50;0.80;;;9.10;99.90;;;;;;5069235;28;20272;-58
2020/12/24 07:06:41;;;;;;;2.83;0.90;;;9.10;99.90;;;;;;5066726;28;20213;-59
2020/12/24 07:09:11;;;;;;;2.45;0.75;;;9.30;99.90;;;;;;5069500;28;20213;-58
2020/12/24 07:11:48;;;;;;;1.73;0.80;;;9.20;99.90;;;;;;5069878;28;20709;-58
2020/12/24 07:14:29;;;;;;;2.15;0.80;;;9.30;99.90;;;;;;5057798;28;20473;-58
2020/12/24 07:16:56;;;;;;;2.05;1.00;;;9.00;99.90;;;;;;5069355;28;20205;-58
2020/12/24 07:19:23;;;;;;;2.42;1.13;;;9.10;99.90;;;;;;5066020;28;20728;-58
2020/12/24 07:21:53;;;;;;;3.22;1.05;;;9.00;99.90;;;;;;5063436;28;20193;-60
2020/12/24 07:24:29;;;;;;;1.65;1.00;;;9.20;99.90;;;;;;5069359;28;20662;-58
2020/12/24 07:26:59;;;;;;;1.60;0.90;;;9.00;99.90;;;;;;5069340;28;20212;-58
2020/12/24 07:29:27;;;;;;;1.58;0.90;;;9.10;99.90;;;;;;5064046;28;20209;-59
2020/12/24 07:31:53;;;;;;;1.50;0.73;;;9.20;99.90;;;;;;5070637;28;20181;-58
2020/12/24 07:34:26;;;;;;;2.08;0.80;;;9.20;99.90;;;;;;5069409;28;20181;-58
2020/12/24 07:36:52;;;;;;;2.40;1.17;;;9.10;99.90;;;;;;5085872;28;20681;-58
2020/12/24 07:39:19;;;;;;;1.50;0.90;;;9.10;99.90;;;;;;5068751;28;20220;-60
2020/12/24 07:41:45;;;;;;;2.35;1.00;;;8.80;99.90;;;;;;5068903;28;20189;-58
2020/12/24 07:44:12;;;;;;;1.80;1.00;;;9.30;99.90;;;;;;5069070;28;20570;-58
2020/12/24 07:46:38;;;;;;;1.33;0.95;;;9.40;99.90;;;;;;5068455;28;20205;-58
2020/12/24 07:49:05;;;;;;;3.47;1.15;;;9.40;99.90;;;;;;5068393;28;20205;-58
2020/12/24 07:51:32;;;;;;;2.15;1.40;;;9.30;99.90;;;;;;5069040;28;20568;-58
2020/12/24 07:54:17;;;;;;;2.42;1.13;;;9.50;99.90;;;;;;5069316;28;20221;-59
2020/12/24 07:56:45;;;;;;;3.80;1.02;;;9.30;99.90;;;;;;5067877;28;20663;-60
2020/12/24 07:59:11;;;;;;;1.42;1.02;;;9.50;99.90;;;;;;5068609;28;20193;-59
2020/12/24 08:01:37;;;;;;;3.45;1.10;;;9.50;99.90;;;;;;5068674;28;20189;-59
2020/12/24 08:04:04;;;;;;;3.87;1.63;;;9.60;99.90;;;;;;5068579;28;20207;-58
2020/12/24 08:06:34;;;;;;;1.30;0.90;;;9.60;99.90;;;;;;5068493;28;20216;-58
2020/12/24 08:09:18;;;;;;;3.10;0.98;;;9.80;99.90;;;;;;5068328;28;20213;-58
2020/12/24 08:11:55;;;;;;;3.67;1.00;;;9.70;99.90;;;;;;5068704;28;20217;-58
2020/12/24 08:14:22;;;;;;;1.60;1.08;;;9.40;99.90;;;;;;5068653;28;20177;-58
2020/12/24 08:16:49;;;;;;;2.53;1.27;;;9.50;99.90;;;;;;5068515;28;20671;-58
2020/12/24 08:19:40;;;;;;;3.03;1.15;;;9.50;99.90;;;;;;5069923;28;20196;-58
2020/12/24 08:22:25;;;;;;;2.05;1.17;;;9.70;99.90;;;;;;5067927;28;20184;-58
2020/12/24 08:24:52;;;;;;;3.58;1.23;;;9.60;99.90;;;;;;5068218;28;20211;-58
2020/12/24 08:27:19;;;;;;;2.03;1.20;;;9.60;99.90;;;;;;5066885;28;20204;-60
2020/12/24 08:29:46;;;;;;;1.55;1.15;;;9.80;99.90;;;;;;5060407;28;20592;-58
2020/12/24 08:32:12;;;;;;;1.98;0.90;;;9.60;99.90;;;;;;5067710;28;20268;-58
2020/12/24 08:34:37;;;;;;;2.15;1.00;;;9.50;99.90;;;;;;5068220;28;20238;-58
2020/12/24 08:37:03;;;;;;;3.03;0.70;;;9.50;99.90;;;;;;5067979;28;20209;-58
2020/12/24 08:39:29;;;;;;;1.00;0.90;;;9.50;99.90;;;;;;5069246;28;20300;-58
2020/12/24 08:41:56;;;;;;;2.53;1.08;;;9.70;99.90;;;;;;5067746;28;20883;-57
2020/12/24 08:44:22;;;;;;;2.33;0.70;;;9.70;99.90;;;;;;5069030;28;20492;-58
2020/12/24 08:47:08;;;;;;;2.40;1.00;;;9.40;99.90;;;;;;5067458;28;20692;-58
2020/12/24 08:49:52;;;;;;;1.83;0.85;;;9.70;99.90;;;;;;5065625;28;20201;-59
2020/12/24 08:52:22;;;;;;;1.00;0.70;;;9.70;99.90;;;;;;5068153;28;20189;-59
2020/12/24 08:54:59;;;;;;;1.00;0.60;;;9.60;99.90;;;;;;5067874;28;20181;-58
2020/12/24 08:57:25;;;;;;;1.77;0.80;;;9.20;99.90;;;;;;5067870;28;20215;-59
2020/12/24 08:59:58;;;;;;;1.83;0.97;;;9.50;99.90;;;;;;5067537;28;20197;-59
2020/12/24 09:02:32;;;;;;;1.20;0.80;;;9.50;99.90;;;;;;5067626;28;20409;-58
2020/12/24 09:04:59;;;;;;;1.30;0.85;;;9.20;99.90;;;;;;5069764;28;20196;-59
2020/12/24 09:07:34;;;;;;;3.03;1.00;;;9.30;99.90;;;;;;5071391;28;20678;-59
2020/12/24 09:10:13;;;;;;;1.13;0.85;;;9.40;99.90;;;;;;5071714;28;20188;-59
2020/12/24 09:12:41;;;;;;;0.98;0.70;;;9.40;99.90;;;;;;5071458;28;20187;-59
2020/12/24 09:15:15;;;;;;;2.95;0.80;;;9.60;99.90;;;;;;5071865;28;20189;-59
2020/12/24 09:18:05;;;;;;;1.63;0.93;;;9.50;99.90;;;;;;5071267;28;20327;-59
2020/12/24 09:20:31;;;;;;;0.70;0.63;;;9.50;99.90;;;;;;5071556;28;20189;-59
2020/12/24 09:22:59;;;;;;;1.98;0.85;;;9.80;99.90;;;;;;5071847;28;20193;-59
2020/12/24 09:25:27;;;;;;;0.85;0.60;;;9.80;99.90;;;;;;5071733;28;20681;-59
2020/12/24 09:27:53;;;;;;;1.48;0.98;;;9.80;99.90;;;;;;5070740;28;20633;-59
2020/12/24 09:30:19;;;;;;;2.40;0.70;;;9.70;99.90;;;;;;5073551;28;20181;-59
2020/12/24 09:33:01;;;;;;;2.13;1.40;;;9.70;99.90;;;;;;5071501;28;20549;-59
2020/12/24 09:35:28;;;;;;;2.45;1.40;;;9.60;99.90;;;;;;5071487;28;20557;-59
2020/12/24 09:37:54;;;;;;;1.15;0.80;;;9.50;99.90;;;;;;5071049;28;20228;-58
2020/12/24 09:40:22;;;;;;;0.80;0.70;;;9.70;99.90;;;;;;5070419;28;20188;-59
2020/12/24 09:42:47;;;;;;;2.00;1.10;;;9.80;99.90;;;;;;5071104;28;20596;-59
2020/12/24 09:45:13;;;;;;;1.40;1.03;;;9.80;99.90;;;;;;5070959;28;20189;-59
2020/12/24 09:47:41;;;;;;;1.10;0.77;;;9.90;99.90;;;;;;5070634;28;20198;-58
2020/12/24 09:50:07;;;;;;;1.65;0.80;;;10.00;99.90;;;;;;5067728;28;20819;-61
2020/12/24 09:52:33;;;;;;;1.53;0.70;;;9.60;99.90;;;;;;5050798;28;20188;-58
2020/12/24 09:54:59;;;;;;;1.80;1.08;;;9.80;99.90;;;;;;5051620;28;20228;-60
2020/12/24 09:57:24;;;;;;;1.60;1.00;;;9.70;99.90;;;;;;5051033;28;20202;-58
2020/12/24 09:59:50;;;;;;;2.10;1.00;;;9.70;99.90;;;;;;5050493;28;20606;-58
2020/12/24 10:02:16;;;;;;;1.57;0.70;;;9.80;99.90;;;;;;5055406;28;20599;-58
2020/12/24 10:04:41;;;;;;;1.23;1.10;;;9.90;99.90;;;;;;5070897;28;20264;-58
2020/12/24 10:07:09;;;;;;;2.37;1.77;;;9.80;99.90;;;;;;5070517;28;20197;-58
2020/12/24 10:09:36;;;;;;;2.28;0.70;;;9.70;99.90;;;;;;5070298;28;20696;-59
2020/12/24 10:12:01;;;;;;;3.13;0.77;;;10.00;99.60;;;;;;5070613;28;20185;-58
2020/12/24 10:14:30;;;;;;;1.03;0.80;;;10.50;99.40;;;;;;5070466;28;20226;-58
2020/12/24 10:16:55;;;;;;;1.35;0.70;;;10.10;99.20;;;;;;5069090;28;20600;-58
2020/12/24 10:19:21;;;;;;;0.70;0.70;;;10.10;98.80;;;;;;5068687;28;20184;-58
2020/12/24 10:21:47;;;;;;;0.70;0.53;;;10.20;99.10;;;;;;5055993;28;20196;-58
2020/12/24 10:24:12;;;;;;;6.00;1.20;;;10.20;98.90;;;;;;5070314;28;20181;-58
2020/12/24 10:26:38;;;;;;;2.47;0.77;;;10.00;98.80;;;;;;5070356;28;20213;-58
2020/12/24 10:29:04;;;;;;;1.07;0.70;;;10.20;99.00;;;;;;5069579;28;20266;-58
2020/12/24 10:31:30;;;;;;;1.20;0.60;;;10.20;98.90;;;;;;5071699;28;20221;-58
2020/12/24 10:33:56;;;;;;;0.80;0.70;;;10.20;98.70;;;;;;5070244;28;20762;-58
2020/12/24 10:36:22;;;;;;;3.97;1.27;;;10.40;98.60;;;;;;5070124;28;20442;-59
2020/12/24 10:38:48;;;;;;;2.47;0.95;;;10.50;98.40;;;;;;5070296;28;20187;-58
2020/12/24 10:41:14;;;;;;;1.73;1.20;;;10.20;98.20;;;;;;5070071;28;20702;-59
2020/12/24 10:43:40;;;;;;;1.65;0.60;;;10.70;98.20;;;;;;5069734;28;20519;-58
2020/12/24 10:46:06;;;;;;;1.60;0.80;;;10.60;97.80;;;;;;5069633;28;20300;-59
2020/12/24 10:48:32;;;;;;;2.30;0.90;;;10.60;98.10;;;;;;5069362;28;20200;-58
2020/12/24 10:50:58;;;;;;;1.10;0.83;;;10.90;97.80;;;;;;5070154;28;20695;-58
2020/12/24 10:53:23;;;;;;;0.93;0.70;;;10.80;97.80;;;;;;5069319;28;20200;-57
2020/12/24 10:55:49;;;;;;;2.50;0.90;;;10.90;97.60;;;;;;5067622;28;20363;-58
2020/12/24 10:58:15;;;;;;;0.93;0.60;;;11.10;97.90;;;;;;5060614;28;20688;-58
2020/12/24 11:00:41;;;;;;;4.40;0.80;;;10.60;96.90;;;;;;5069714;28;20185;-57
2020/12/24 11:03:06;;;;;;;1.15;0.80;;;10.80;97.30;;;;;;5070075;28;20676;-58
2020/12/24 11:05:32;;;;;;;1.37;0.80;;;11.00;97.50;;;;;;5069911;28;20192;-58
2020/12/24 11:07:57;;;;;;;1.07;0.60;;;11.00;97.40;;;;;;5069106;28;20250;-58
2020/12/24 11:10:23;;;;;;;2.80;1.10;;;10.90;97.30;;;;;;5069499;28;20181;-58
2020/12/24 11:12:49;;;;;;;1.20;0.60;;;10.90;97.30;;;;;;5070794;28;20971;-57
2020/12/24 11:15:15;;;;;;;1.40;0.70;;;11.00;97.30;;;;;;5069436;28;20180;-58
2020/12/24 11:17:40;;;;;;;2.10;0.80;;;11.10;97.20;;;;;;5068757;28;20216;-58
2020/12/24 11:20:06;;;;;;;0.90;0.70;;;11.20;97.10;;;;;;5069156;28;20436;-57
2020/12/24 11:22:31;;;;;;;2.27;1.27;;;11.10;97.00;;;;;;5068814;28;20185;-58
2020/12/24 11:24:58;;;;;;;0.93;0.70;;;10.90;97.40;;;;;;5068635;28;20560;-58
2020/12/24 11:27:24;;;;;;;1.88;1.70;;;10.50;97.40;;;;;;5067845;28;20631;-58
2020/12/24 11:29:50;;;;;;;1.27;0.80;;;10.70;97.90;;;;;;5068425;28;20234;-58
2020/12/24 11:32:15;;;;;;;0.80;0.60;;;10.60;97.90;;;;;;5068950;28;20185;-58
2020/12/24 11:34:41;;;;;;;5.30;2.30;;;10.70;97.90;;;;;;5068919;28;20200;-58
2020/12/24 11:37:06;;;;;;;1.73;1.23;;;10.80;97.40;;;;;;5068922;28;20224;-58
2020/12/24 11:39:32;;;;;;;1.27;0.60;;;10.90;97.20;;;;;;5068919;28;20602;-59
2020/12/24 11:41:58;;;;;;;0.90;0.70;;;11.00;96.60;;;;;;5069973;28;20268;-59
2020/12/24 11:44:24;;;;;;;1.17;0.50;;;11.30;96.10;;;;;;5068879;28;20229;-59
2020/12/24 11:46:50;;;;;;;0.80;0.80;;;11.50;96.10;;;;;;5069032;28;20274;-58
2020/12/24 11:49:15;;;;;;;0.70;0.60;;;11.40;96.10;;;;;;5068795;28;20280;-59
2020/12/24 11:51:44;;;;;;;0.60;0.50;;;11.10;96.30;;;;;;5065581;28;20182;-58
2020/12/24 11:54:10;;;;;;;1.00;0.70;;;11.10;96.60;;;;;;5048649;28;20516;-59
2020/12/24 11:56:35;;;;;;;0.93;0.70;;;11.10;96.50;;;;;;5048822;28;20739;-59
2020/12/24 11:59:01;;;;;;;0.83;0.67;;;11.20;96.70;;;;;;5048570;28;20181;-59
2020/12/24 12:01:27;;;;;;;2.20;0.70;;;10.90;96.40;;;;;;5055411;28;20193;-59
2020/12/24 12:03:52;;;;;;;0.60;0.50;;;11.00;96.50;;;;;;5068758;28;20567;-59
2020/12/24 12:06:19;;;;;;;0.90;0.50;;;11.20;96.50;;;;;;5068742;28;20206;-59
2020/12/24 12:08:45;;;;;;;1.00;0.60;;;11.10;96.60;;;;;;5067730;28;20434;-59
2020/12/24 12:11:11;;;;;;;1.00;0.60;;;10.90;96.50;;;;;;5068535;28;20178;-59
2020/12/24 12:13:37;;;;;;;0.73;0.60;;;11.00;96.50;;;;;;5068682;28;20661;-59
2020/12/24 12:16:08;;;;;;;2.85;0.80;;;11.10;96.70;;;;;;5068468;28;20532;-59
2020/12/24 12:18:35;;;;;;;0.93;0.60;;;10.90;96.80;;;;;;5067346;28;20722;-59
2020/12/24 12:21:01;;;;;;;1.15;0.60;;;10.80;96.40;;;;;;5063263;28;20228;-59
2020/12/24 12:23:26;;;;;;;0.70;0.70;;;10.60;96.50;;;;;;5068256;28;20279;-59
2020/12/24 12:25:52;;;;;;;1.77;1.20;;;11.00;96.50;;;;;;5067734;28;20460;-58
2020/12/24 12:28:18;;;;;;;0.97;0.50;;;11.00;96.30;;;;;;5068197;28;20593;-59
2020/12/24 12:30:43;;;;;;;1.33;0.60;;;11.00;96.20;;;;;;5068086;28;20196;-59
2020/12/24 12:33:09;;;;;;;0.90;0.70;;;10.90;96.50;;;;;;5068261;28;20189;-59
2020/12/24 12:35:34;;;;;;;1.10;0.93;;;11.30;97.00;;;;;;5069186;28;20183;-59
2020/12/24 12:38:00;;;;;;;1.67;0.60;;;10.90;96.70;;;;;;5067922;28;20241;-59
2020/12/24 12:40:27;;;;;;;0.80;0.70;;;11.00;96.50;;;;;;5067065;28;20193;-59
2020/12/24 12:42:52;;;;;;;1.48;0.80;;;10.80;96.50;;;;;;5068422;28;20552;-59
2020/12/24 12:45:18;;;;;;;0.80;0.70;;;11.00;96.80;;;;;;5068074;28;20185;-59
2020/12/24 12:47:43;;;;;;;0.60;0.50;;;10.90;97.00;;;;;;5067975;28;20287;-59
2020/12/24 12:50:11;;;;;;;1.97;1.10;;;10.60;97.00;;;;;;5069315;28;20176;-58
2020/12/24 12:52:37;;;;;;;0.70;0.60;;;10.60;97.00;;;;;;5072788;28;20234;-59
2020/12/24 12:55:04;;;;;;;1.03;0.80;;;10.70;97.30;;;;;;5069231;28;20240;-59